Time;durP1;ratioP1;P1;durP2;ratioP2;P2;SDS_P1;SDS_P2;PMS_P1;PMS_P2;Temp;Humidity;BMP_temperature;BMP_pressure;BME280_temperature;BME280_humidity;BME280_pressure;Samples;Min_cycle;Max_cycle;Signal;HPM_P1;HPM_P2
2021/03/06 00:01:15;;;;;;;3.27;2.58;;;;;;;12.19;48.85;100093.23;1797497;78;21222;-61
2021/03/06 00:03:44;;;;;;;3.20;2.52;;;;;;;12.18;48.86;100089.70;1772698;79;21154;-61
2021/03/06 00:06:12;;;;;;;2.37;1.90;;;;;;;12.17;48.85;100093.89;1767927;79;21458;-61
2021/03/06 00:08:39;;;;;;;3.60;2.55;;;;;;;12.15;48.87;100085.25;1787599;79;21210;-62
2021/03/06 00:11:07;;;;;;;2.83;2.30;;;;;;;12.15;48.86;100091.91;1771374;79;21147;-62
2021/03/06 00:13:35;;;;;;;3.08;2.25;;;;;;;12.14;48.84;100096.89;1763505;79;21170;-61
2021/03/06 00:16:04;;;;;;;2.47;2.25;;;;;;;12.13;48.84;100095.20;1778935;79;21149;-61
2021/03/06 00:18:32;;;;;;;3.40;2.15;;;;;;;12.12;48.84;100096.22;1765328;79;21327;-60
2021/03/06 00:20:59;;;;;;;2.90;2.33;;;;;;;12.11;48.84;100098.55;1789035;79;21221;-62
2021/03/06 00:23:29;;;;;;;3.42;2.00;;;;;;;12.10;48.84;100097.72;1777591;77;21182;-62
2021/03/06 00:25:57;;;;;;;2.47;1.77;;;;;;;12.08;48.84;100098.91;1782355;79;21121;-60
2021/03/06 00:28:24;;;;;;;2.95;2.05;;;;;;;12.07;48.85;100097.22;1774811;79;21163;-62
2021/03/06 00:30:52;;;;;;;2.52;1.95;;;;;;;12.06;48.85;100108.89;1778321;79;21183;-63
2021/03/06 00:33:20;;;;;;;2.70;2.10;;;;;;;12.04;48.84;100100.24;1772421;78;21622;-60
2021/03/06 00:35:48;;;;;;;2.17;1.67;;;;;;;12.04;48.86;100097.58;1789007;78;21198;-60
2021/03/06 00:38:16;;;;;;;2.27;1.80;;;;;;;12.03;48.85;100091.91;1773527;79;21195;-60
2021/03/06 00:40:43;;;;;;;2.52;2.17;;;;;;;12.02;48.85;100100.91;1780021;79;21134;-61
2021/03/06 00:43:11;;;;;;;2.02;1.82;;;;;;;11.99;48.85;100093.59;1782224;79;23681;-60
2021/03/06 00:45:39;;;;;;;2.42;2.10;;;;;;;11.98;48.86;100097.24;1771192;79;21214;-59
2021/03/06 00:48:07;;;;;;;2.90;2.25;;;;;;;11.96;48.84;100096.58;1777843;79;21127;-60
2021/03/06 00:50:35;;;;;;;2.80;2.08;;;;;;;11.95;48.86;100102.89;1784631;78;21131;-59
2021/03/06 00:53:04;;;;;;;2.60;2.15;;;;;;;11.94;48.86;100101.25;1775328;79;21182;-60
2021/03/06 00:55:33;;;;;;;2.30;1.80;;;;;;;11.93;48.86;100100.90;1784789;79;21616;-60
2021/03/06 00:58:01;;;;;;;2.83;2.00;;;;;;;11.92;48.83;100099.77;1772982;79;21862;-60
2021/03/06 01:00:29;;;;;;;2.65;2.05;;;;;;;11.90;48.84;100102.59;1776960;79;21123;-60
2021/03/06 01:02:59;;;;;;;2.58;2.00;;;;;;;11.88;48.84;100105.03;1798761;78;21664;-59
2021/03/06 01:05:28;;;;;;;2.12;1.92;;;;;;;11.87;48.85;100106.87;1806532;78;21089;-58
2021/03/06 01:07:55;;;;;;;2.25;1.67;;;;;;;11.87;48.83;100110.04;1804948;78;21381;-59
2021/03/06 01:10:31;;;;;;;2.55;2.25;;;;;;;11.86;48.82;100103.04;1805419;78;21138;-60
2021/03/06 01:12:58;;;;;;;2.42;1.85;;;;;;;11.85;48.82;100118.69;1802783;78;21175;-61
2021/03/06 01:15:25;;;;;;;1.82;1.70;;;;;;;11.83;48.81;100108.20;1796437;78;21082;-60
2021/03/06 01:17:53;;;;;;;2.30;1.80;;;;;;;11.81;48.81;100108.37;1805866;78;21141;-60
2021/03/06 01:20:21;;;;;;;2.35;1.80;;;;;;;11.74;48.82;100103.40;1797433;78;21281;-60
2021/03/06 01:22:49;;;;;;;1.87;1.45;;;;;;;11.81;48.81;100114.20;1817111;78;21149;-60
2021/03/06 01:25:16;;;;;;;2.40;1.80;;;;;;;11.79;48.79;100112.20;1802448;78;21098;-61
2021/03/06 01:27:44;;;;;;;2.40;2.00;;;;;;;11.78;48.80;100110.53;1801189;78;21274;-61
2021/03/06 01:30:14;;;;;;;2.27;1.75;;;;;;;11.76;48.80;100112.05;1817575;77;21150;-60
2021/03/06 01:32:41;;;;;;;2.25;1.85;;;;;;;11.75;48.81;100118.86;1800346;78;21372;-61
2021/03/06 01:35:11;;;;;;;2.25;1.80;;;;;;;11.74;48.82;100110.05;1802884;77;21154;-60
2021/03/06 01:37:39;;;;;;;2.33;1.60;;;;;;;11.74;48.80;100115.86;1819021;77;21137;-61
2021/03/06 01:40:15;;;;;;;2.00;1.80;;;;;;;11.73;48.80;100116.88;1821588;78;21593;-59
2021/03/06 01:42:43;;;;;;;2.20;1.62;;;;;;;11.71;48.79;100117.03;1807237;77;21133;-60
2021/03/06 01:45:12;;;;;;;1.87;1.57;;;;;;;11.71;48.82;100118.87;1811627;77;21363;-63
2021/03/06 01:47:41;;;;;;;2.15;1.50;;;;;;;11.71;48.80;100125.52;1814889;77;21181;-61
2021/03/06 01:50:11;;;;;;;2.00;1.67;;;;;;;11.69;48.82;100123.53;1756521;81;21451;-61
2021/03/06 01:52:38;;;;;;;2.65;1.82;;;;;;;11.68;48.80;100127.17;1785277;78;21638;-63
2021/03/06 01:55:08;;;;;;;2.10;1.62;;;;;;;11.66;48.80;100131.83;1788802;78;21146;-62
2021/03/06 01:57:36;;;;;;;2.60;1.80;;;;;;;11.65;48.79;100134.14;1791375;78;22265;-60
2021/03/06 02:00:06;;;;;;;2.30;1.50;;;;;;;11.65;48.80;100137.66;1792160;79;21149;-61
2021/03/06 02:02:36;;;;;;;2.02;1.50;;;;;;;11.63;48.78;100142.31;1741166;80;22015;-61
2021/03/06 02:05:06;;;;;;;1.98;1.35;;;;;;;11.61;48.79;100142.47;1743291;79;21183;-59
2021/03/06 02:07:34;;;;;;;1.95;1.50;;;;;;;11.60;48.80;100148.78;1798269;78;21161;-59
2021/03/06 02:10:03;;;;;;;1.80;1.52;;;;;;;11.58;48.77;100150.77;1809182;78;21342;-61
2021/03/06 02:12:58;;;;;;;2.22;1.60;;;;;;;11.58;48.77;100154.77;1806778;77;21201;-59
2021/03/06 02:16:14;;;;;;;1.72;1.40;;;;;;;11.57;48.77;100151.78;1808326;77;21129;-61
2021/03/06 02:18:56;;;;;;;1.60;1.37;;;;;;;11.55;48.77;100156.45;1809111;77;21162;-59
2021/03/06 02:21:46;;;;;;;1.52;1.32;;;;;;;11.50;48.81;100165.41;1729680;81;21408;-60
2021/03/06 02:25:10;;;;;;;2.25;1.22;;;;;;;11.49;48.83;100170.41;1810005;77;21372;-61
2021/03/06 02:28:15;;;;;;;1.92;1.50;;;;;;;11.47;48.84;100171.55;1800026;78;21114;-61
2021/03/06 02:30:42;;;;;;;2.10;1.57;;;;;;;11.41;48.89;100178.34;1803654;77;21156;-61
2021/03/06 02:33:10;;;;;;;1.27;1.10;;;;;;;11.38;48.92;100180.02;1798395;78;21158;-61
2021/03/06 02:35:38;;;;;;;1.90;1.60;;;;;;;11.37;48.92;100178.34;1792805;77;21173;-60
2021/03/06 02:38:10;;;;;;;2.80;1.62;;;;;;;11.37;48.91;100186.32;1794291;77;21374;-59
2021/03/06 02:40:38;;;;;;;1.98;1.50;;;;;;;11.37;48.89;100184.99;1801536;78;21130;-61
2021/03/06 02:43:08;;;;;;;2.80;1.52;;;;;;;11.36;48.87;100183.34;1809078;77;21122;-60
2021/03/06 02:45:38;;;;;;;3.00;1.52;;;;;;;11.35;48.86;100190.97;1800163;77;21609;-60
2021/03/06 02:48:07;;;;;;;1.87;1.35;;;;;;;11.35;48.84;100193.63;1796226;77;21178;-60
2021/03/06 02:50:35;;;;;;;1.90;1.47;;;;;;;11.34;48.83;100202.13;1735815;80;22381;-61
2021/03/06 02:53:02;;;;;;;1.72;1.37;;;;;;;11.34;48.80;100198.64;1725100;80;21192;-60
2021/03/06 02:55:32;;;;;;;1.50;1.32;;;;;;;11.34;48.80;100207.95;1711631;82;21178;-61
2021/03/06 02:58:20;;;;;;;2.05;1.27;;;;;;;11.32;48.75;100208.10;1753926;80;21388;-60
2021/03/06 03:01:13;;;;;;;2.60;2.00;;;;;;;11.31;48.76;100210.41;1809427;78;21121;-61
2021/03/06 03:04:19;;;;;;;2.37;1.80;;;;;;;11.30;48.75;100218.07;1808192;78;21364;-61
2021/03/06 03:06:48;;;;;;;2.30;1.47;;;;;;;11.29;48.74;100228.86;1804950;77;21582;-60
2021/03/06 03:09:27;;;;;;;2.45;2.10;;;;;;;11.25;48.74;100228.34;1798405;77;21575;-60
2021/03/06 03:12:18;;;;;;;2.42;1.98;;;;;;;11.24;48.75;100235.16;1803470;78;21145;-61
2021/03/06 03:15:18;;;;;;;1.92;1.72;;;;;;;11.21;48.74;100229.16;1796545;78;21113;-61
2021/03/06 03:17:49;;;;;;;2.33;1.77;;;;;;;11.20;48.74;100227.52;1811166;77;21390;-61
2021/03/06 03:20:39;;;;;;;2.30;1.60;;;;;;;11.18;48.73;100229.97;1813314;77;21169;-61
2021/03/06 03:23:34;;;;;;;2.27;2.00;;;;;;;11.16;48.73;100227.97;1798814;77;21109;-60
2021/03/06 03:26:06;;;;;;;2.15;1.60;;;;;;;11.14;48.73;100233.44;1798975;77;21202;-61
2021/03/06 03:28:36;;;;;;;2.00;1.80;;;;;;;11.12;48.73;100231.44;1810508;77;21127;-61
2021/03/06 03:31:03;;;;;;;1.98;1.75;;;;;;;11.11;48.74;100236.44;1805974;77;21178;-60
2021/03/06 03:33:32;;;;;;;2.98;2.12;;;;;;;11.11;48.72;100239.09;1809984;77;21164;-60
2021/03/06 03:36:05;;;;;;;2.05;1.65;;;;;;;11.11;48.69;100239.61;1800641;77;21177;-60
2021/03/06 03:38:33;;;;;;;3.05;2.02;;;;;;;11.11;48.68;100236.95;1803199;78;21177;-60
2021/03/06 03:41:01;;;;;;;2.33;1.60;;;;;;;11.10;48.65;100236.59;1803497;77;21165;-59
2021/03/06 03:43:29;;;;;;;2.22;1.85;;;;;;;11.10;48.62;100240.58;1818011;77;21184;-59
2021/03/06 03:45:56;;;;;;;2.42;1.72;;;;;;;11.08;48.64;100240.73;1804133;78;21169;-60
2021/03/06 03:48:24;;;;;;;2.12;1.60;;;;;;;11.09;48.63;100241.59;1830179;77;21166;-61
2021/03/06 03:50:53;;;;;;;2.72;1.92;;;;;;;11.09;48.59;100253.55;1819586;77;21149;-60
2021/03/06 03:53:20;;;;;;;1.82;1.30;;;;;;;11.07;48.57;100253.70;1757112;80;21163;-62
2021/03/06 03:55:48;;;;;;;2.00;1.62;;;;;;;11.07;48.56;100250.19;1782153;79;21343;-60
2021/03/06 03:58:15;;;;;;;1.67;1.40;;;;;;;11.06;48.53;100252.03;1776403;80;21188;-61
2021/03/06 04:00:43;;;;;;;1.77;1.62;;;;;;;11.06;48.52;100252.03;1783713;78;21152;-60
2021/03/06 04:03:11;;;;;;;3.22;1.77;;;;;;;11.06;48.50;100257.84;1754409;80;21209;-60
2021/03/06 04:05:39;;;;;;;2.70;2.12;;;;;;;11.05;48.47;100255.70;1753226;80;21622;-61
2021/03/06 04:08:07;;;;;;;2.00;1.80;;;;;;;11.05;48.46;100262.34;1748607;80;21414;-61
2021/03/06 04:10:34;;;;;;;2.00;1.62;;;;;;;11.04;48.44;100262.49;1738206;79;21649;-61
2021/03/06 04:13:01;;;;;;;2.20;1.52;;;;;;;11.03;48.44;100263.00;1748793;79;21157;-60
2021/03/06 04:18:08;;;;;;;1.80;1.55;;;;;;;11.05;48.37;100259.69;1832084;76;28755;-60
2021/03/06 04:20:35;;;;;;;3.12;2.20;;;;;;;10.93;48.49;100258.27;1794133;77;21098;-61
2021/03/06 04:23:03;;;;;;;1.87;1.60;;;;;;;10.93;48.45;100261.78;1800058;77;22799;-60
2021/03/06 04:25:30;;;;;;;2.60;1.75;;;;;;;10.94;48.43;100261.28;1780778;77;21043;-61
2021/03/06 04:27:58;;;;;;;3.30;1.90;;;;;;;10.94;48.40;100263.44;1785778;77;21028;-61
2021/03/06 04:30:25;;;;;;;2.25;1.72;;;;;;;10.93;48.38;100262.25;1787226;79;21538;-62
2021/03/06 04:32:53;;;;;;;2.70;2.20;;;;;;;10.93;48.40;100266.24;1795337;77;21135;-62
2021/03/06 04:35:21;;;;;;;2.20;1.90;;;;;;;10.92;48.36;100269.91;1800480;79;21339;-61
2021/03/06 04:37:48;;;;;;;2.00;1.80;;;;;;;10.90;48.36;100275.38;1797957;77;21606;-62
2021/03/06 04:40:16;;;;;;;2.08;1.85;;;;;;;10.91;48.35;100273.55;1795308;77;21126;-60
2021/03/06 04:42:43;;;;;;;2.47;1.87;;;;;;;10.91;48.34;100274.87;1784197;79;21154;-60
2021/03/06 04:45:11;;;;;;;2.47;1.82;;;;;;;10.90;48.32;100278.03;1786215;79;21146;-61
2021/03/06 04:47:41;;;;;;;2.50;1.95;;;;;;;10.89;48.31;100280.84;1791029;79;22288;-61
2021/03/06 04:50:10;;;;;;;2.62;1.82;;;;;;;10.89;48.27;100276.86;1789769;77;21588;-61
2021/03/06 04:52:37;;;;;;;2.47;2.00;;;;;;;10.89;48.30;100283.50;1788445;77;21155;-63
2021/03/06 04:55:08;;;;;;;2.22;1.90;;;;;;;10.88;48.26;100282.67;1800215;77;21094;-61
2021/03/06 04:57:36;;;;;;;3.22;1.87;;;;;;;10.87;48.24;100279.66;1787973;79;21174;-61
2021/03/06 05:00:09;;;;;;;2.22;1.80;;;;;;;10.87;48.24;100281.50;1809057;79;22772;-60
2021/03/06 05:02:36;;;;;;;3.45;2.22;;;;;;;10.87;48.21;100274.85;1772600;77;21160;-60
2021/03/06 05:05:07;;;;;;;2.15;1.60;;;;;;;10.88;48.21;100277.86;1790661;79;21126;-61
2021/03/06 05:07:36;;;;;;;2.10;1.77;;;;;;;10.86;48.19;100280.67;1787361;77;21614;-62
2021/03/06 05:10:07;;;;;;;2.95;1.80;;;;;;;10.87;48.18;100297.45;1781036;77;21611;-61
2021/03/06 05:12:35;;;;;;;3.05;1.70;;;;;;;10.86;48.14;100304.59;1795393;79;21376;-62
2021/03/06 05:15:05;;;;;;;2.52;2.15;;;;;;;10.87;48.11;100311.56;1781024;79;21162;-62
2021/03/06 05:17:33;;;;;;;2.83;2.10;;;;;;;10.87;48.10;100308.91;1775797;77;21117;-62
2021/03/06 05:20:01;;;;;;;2.35;1.87;;;;;;;10.90;48.11;100307.78;1766325;78;21186;-65
2021/03/06 05:22:28;;;;;;;2.35;2.05;;;;;;;10.89;48.09;100307.42;1738156;81;21599;-61
2021/03/06 05:24:56;;;;;;;2.22;1.90;;;;;;;10.90;48.06;100315.75;1738309;79;21418;-60
2021/03/06 05:27:25;;;;;;;2.42;2.02;;;;;;;10.89;48.03;100318.88;1771715;79;21118;-59
2021/03/06 05:29:54;;;;;;;1.87;1.67;;;;;;;10.90;48.01;100321.06;1761855;78;21162;-60
2021/03/06 05:32:21;;;;;;;2.05;1.70;;;;;;;10.91;47.98;100329.36;1772503;78;21650;-61
2021/03/06 05:34:49;;;;;;;2.62;2.12;;;;;;;10.91;47.96;100332.84;1774574;79;21158;-61
2021/03/06 05:37:16;;;;;;;2.70;2.30;;;;;;;10.92;47.94;100337.19;1780979;78;21369;-62
2021/03/06 05:39:43;;;;;;;2.60;1.80;;;;;;;10.95;47.90;100342.68;1789203;77;21107;-61
2021/03/06 05:42:11;;;;;;;2.70;2.30;;;;;;;10.95;47.88;100343.54;1791832;78;22532;-60
2021/03/06 05:44:39;;;;;;;3.17;2.45;;;;;;;10.97;47.83;100343.36;1772535;79;21138;-61
2021/03/06 05:47:06;;;;;;;3.15;2.42;;;;;;;10.99;47.82;100350.20;1787371;78;21118;-61
2021/03/06 05:49:36;;;;;;;3.95;2.12;;;;;;;11.00;47.80;100351.86;1778333;77;21277;-61
2021/03/06 05:52:06;;;;;;;2.42;2.05;;;;;;;11.02;47.75;100354.37;1788398;78;21144;-61
2021/03/06 05:54:53;;;;;;;2.70;2.30;;;;;;;11.05;47.72;100357.20;1775516;78;21198;-62
2021/03/06 05:57:21;;;;;;;3.47;2.15;;;;;;;11.04;47.68;100356.38;1780996;78;21193;-61
2021/03/06 05:59:48;;;;;;;3.58;2.30;;;;;;;11.05;47.65;100364.70;1772614;78;21123;-62
2021/03/06 06:02:16;;;;;;;3.67;2.50;;;;;;;11.07;47.61;100372.50;1781277;78;21638;-61
2021/03/06 06:04:45;;;;;;;2.77;2.42;;;;;;;11.09;47.61;100376.70;1727061;80;21572;-61
2021/03/06 06:07:17;;;;;;;2.65;2.12;;;;;;;11.11;47.53;100377.88;1735419;80;21131;-63
2021/03/06 06:09:45;;;;;;;2.47;2.08;;;;;;;11.13;47.53;100380.70;1790193;79;21734;-62
2021/03/06 06:12:12;;;;;;;2.77;1.90;;;;;;;11.14;47.47;100384.19;1786550;78;21162;-61
2021/03/06 06:14:42;;;;;;;2.58;2.08;;;;;;;11.16;47.45;100391.52;1789971;78;21202;-63
2021/03/06 06:17:10;;;;;;;3.25;2.37;;;;;;;11.18;47.40;100385.55;1787400;77;21177;-62
2021/03/06 06:19:38;;;;;;;3.50;2.20;;;;;;;11.19;47.37;100392.55;1784223;78;21169;-61
2021/03/06 06:22:21;;;;;;;3.12;2.17;;;;;;;11.21;47.34;100395.38;1794038;77;21194;-61
2021/03/06 06:24:51;;;;;;;2.90;2.22;;;;;;;11.25;47.32;100395.08;1777002;77;21579;-60
2021/03/06 06:27:29;;;;;;;2.55;2.02;;;;;;;11.26;47.27;100400.72;1794265;77;21275;-61
2021/03/06 06:29:59;;;;;;;3.25;2.47;;;;;;;11.26;47.26;100400.72;1789720;77;21186;-62
2021/03/06 06:32:30;;;;;;;2.55;1.87;;;;;;;11.28;47.21;100405.39;1796400;77;21185;-62
2021/03/06 06:35:03;;;;;;;2.65;1.87;;;;;;;11.30;47.18;100404.73;1775937;79;21135;-61
2021/03/06 06:37:31;;;;;;;3.17;2.00;;;;;;;11.32;47.14;100403.61;1783944;79;21199;-62
2021/03/06 06:40:00;;;;;;;2.75;1.67;;;;;;;11.33;47.12;100407.09;1787010;77;21610;-62
2021/03/06 06:42:31;;;;;;;2.90;1.87;;;;;;;11.35;47.07;100409.09;1798564;77;21165;-62
2021/03/06 06:44:59;;;;;;;2.75;2.12;;;;;;;11.38;47.04;100407.47;1790941;79;21102;-63
2021/03/06 06:47:35;;;;;;;2.85;2.08;;;;;;;11.40;47.00;100413.46;1783840;79;21630;-63
2021/03/06 06:50:06;;;;;;;2.50;2.15;;;;;;;11.42;46.96;100410.15;1791646;79;21154;-64
2021/03/06 06:52:44;;;;;;;3.17;1.82;;;;;;;11.44;46.92;100417.47;1800506;77;21426;-64
2021/03/06 06:55:12;;;;;;;2.52;1.85;;;;;;;11.46;46.85;100416.82;1790961;78;21138;-63
2021/03/06 06:57:49;;;;;;;2.40;1.90;;;;;;;11.49;46.83;100420.98;1788147;78;21213;-62
2021/03/06 07:00:18;;;;;;;2.52;1.80;;;;;;;11.51;46.79;100416.34;1779283;79;21170;-63
2021/03/06 07:02:53;;;;;;;2.40;1.60;;;;;;;11.53;46.73;100417.02;1780185;77;21634;-63
2021/03/06 07:05:36;;;;;;;2.15;1.65;;;;;;;11.56;46.68;100417.53;1789477;78;21412;-62
2021/03/06 07:08:10;;;;;;;2.77;1.80;;;;;;;11.59;46.65;100423.88;1786075;77;21122;-63
2021/03/06 07:10:41;;;;;;;2.72;2.12;;;;;;;11.61;46.58;100418.41;1727859;79;21893;-63
2021/03/06 07:13:11;;;;;;;2.52;2.12;;;;;;;11.63;46.52;100423.08;1787212;77;21162;-64
2021/03/06 07:15:39;;;;;;;2.50;1.90;;;;;;;11.67;46.48;100424.93;1786596;78;21614;-64
2021/03/06 07:18:16;;;;;;;2.70;2.05;;;;;;;11.69;46.43;100432.26;1705534;82;21487;-64
2021/03/06 07:20:45;;;;;;;1.87;1.65;;;;;;;11.71;46.38;100426.27;1784964;78;21189;-64
2021/03/06 07:23:22;;;;;;;2.37;1.80;;;;;;;11.74;46.36;100428.60;1770965;78;21172;-63
2021/03/06 07:25:56;;;;;;;2.62;2.02;;;;;;;11.76;46.33;100430.61;1791911;78;21174;-63
2021/03/06 07:28:24;;;;;;;1.92;1.60;;;;;;;11.78;46.28;100428.62;1773890;78;21111;-64
2021/03/06 07:30:53;;;;;;;2.25;1.72;;;;;;;11.81;46.26;100425.65;1758812;79;22240;-64
2021/03/06 07:33:20;;;;;;;1.98;1.70;;;;;;;11.84;46.21;100432.47;1731273;79;21598;-65
2021/03/06 07:35:48;;;;;;;2.60;2.12;;;;;;;11.86;46.16;100430.48;1790552;77;21107;-64
2021/03/06 07:38:18;;;;;;;2.37;1.87;;;;;;;11.88;46.12;100433.34;1778569;78;21159;-64
2021/03/06 07:40:50;;;;;;;2.30;1.85;;;;;;;11.92;46.06;100436.56;1787424;78;21146;-64
2021/03/06 07:43:23;;;;;;;2.80;1.52;;;;;;;11.96;46.01;100440.56;1740908;80;21584;-64
2021/03/06 07:45:51;;;;;;;2.72;1.92;;;;;;;11.97;45.97;100443.05;1741744;81;21643;-64
2021/03/06 07:48:20;;;;;;;2.67;1.80;;;;;;;12.00;45.92;100445.91;1774318;78;21102;-65
2021/03/06 07:50:50;;;;;;;2.80;1.98;;;;;;;12.03;45.88;100439.41;1792959;77;21137;-64
2021/03/06 07:53:18;;;;;;;3.42;2.15;;;;;;;12.05;45.81;100436.09;1780136;77;21138;-64
2021/03/06 07:55:47;;;;;;;2.67;1.87;;;;;;;12.09;45.77;100438.77;1777724;77;21345;-63
2021/03/06 07:58:20;;;;;;;2.33;1.70;;;;;;;12.11;45.72;100432.78;1778666;78;21564;-64
2021/03/06 08:00:57;;;;;;;1.75;1.60;;;;;;;12.14;45.66;100431.97;1784710;77;21123;-63
2021/03/06 08:03:34;;;;;;;2.05;1.80;;;;;;;12.17;45.64;100436.16;1787207;78;21161;-63
2021/03/06 08:06:24;;;;;;;2.77;1.72;;;;;;;12.20;45.61;100439.30;1783519;79;21114;-64
2021/03/06 08:09:10;;;;;;;2.50;1.75;;;;;;;12.23;45.55;100442.16;1778395;78;21367;-64
2021/03/06 08:11:41;;;;;;;2.22;1.70;;;;;;;12.25;45.47;100438.84;1791291;78;21143;-64
2021/03/06 08:14:30;;;;;;;2.42;1.90;;;;;;;12.27;45.45;100447.50;1785941;79;21166;-64
2021/03/06 08:16:58;;;;;;;3.70;2.33;;;;;;;12.31;45.45;100441.35;1744534;80;21154;-65
2021/03/06 08:19:26;;;;;;;2.08;1.55;;;;;;;12.32;45.41;100444.34;1781036;78;21158;-63
2021/03/06 08:21:56;;;;;;;3.65;2.08;;;;;;;12.35;45.39;100444.85;1792501;79;21374;-65
2021/03/06 08:24:27;;;;;;;2.65;1.92;;;;;;;12.39;45.34;100445.36;1800111;78;21578;-65
2021/03/06 08:27:07;;;;;;;3.05;1.90;;;;;;;12.43;45.28;100445.88;1789477;79;21594;-64
2021/03/06 08:29:41;;;;;;;2.98;1.90;;;;;;;12.45;45.25;100435.38;1791681;78;21197;-65
2021/03/06 08:32:31;;;;;;;3.92;1.60;;;;;;;12.49;45.18;100442.05;1789203;79;21166;-64
2021/03/06 08:35:19;;;;;;;1.92;1.60;;;;;;;12.53;45.16;100441.23;1780517;79;21436;-64
2021/03/06 08:37:49;;;;;;;2.90;2.10;;;;;;;12.56;45.12;100436.41;1785345;78;21185;-63
2021/03/06 08:40:19;;;;;;;3.17;1.77;;;;;;;12.59;45.12;100434.76;1782636;79;21178;-65
2021/03/06 08:42:52;;;;;;;1.85;1.50;;;;;;;12.64;45.10;100435.59;1786250;79;21177;-64
2021/03/06 08:45:27;;;;;;;2.30;1.65;;;;;;;12.70;45.09;100436.77;1781190;79;21539;-63
2021/03/06 08:48:02;;;;;;;2.02;1.65;;;;;;;12.74;45.12;100436.25;1800302;78;21192;-63
2021/03/06 08:50:35;;;;;;;1.95;1.70;;;;;;;12.80;45.12;100430.77;1774469;79;22080;-63
2021/03/06 08:53:06;;;;;;;2.55;1.95;;;;;;;12.87;45.17;100429.11;1798274;77;21599;-63
2021/03/06 08:55:41;;;;;;;1.85;1.40;;;;;;;12.94;45.17;100427.92;1787111;79;21106;-64
2021/03/06 08:58:10;;;;;;;2.83;1.90;;;;;;;13.01;45.19;100425.45;1787206;79;21646;-64
2021/03/06 09:00:40;;;;;;;2.00;1.47;;;;;;;13.08;45.22;100430.45;1796231;77;21205;-64
2021/03/06 09:03:20;;;;;;;2.52;1.70;;;;;;;13.14;45.21;100430.60;1790917;77;21167;-63
2021/03/06 09:05:58;;;;;;;1.50;1.30;;;;;;;13.22;45.09;100428.94;1783243;78;21161;-64
2021/03/06 09:08:27;;;;;;;2.52;1.60;;;;;;;13.31;45.04;100426.63;1749463;81;21125;-63
2021/03/06 09:10:58;;;;;;;1.90;1.40;;;;;;;13.38;45.06;100436.94;1749097;80;21114;-64
2021/03/06 09:13:28;;;;;;;2.60;1.60;;;;;;;13.46;44.99;100428.94;1777842;79;21192;-63
2021/03/06 09:16:00;;;;;;;2.42;1.90;;;;;;;13.55;44.95;100418.55;1779557;77;21159;-64
2021/03/06 09:18:35;;;;;;;2.00;1.47;;;;;;;13.64;44.84;100419.38;1777950;78;25784;-64
2021/03/06 09:21:20;;;;;;;2.12;1.50;;;;;;;13.73;44.81;100418.83;1775714;78;21178;-66
2021/03/06 09:23:47;;;;;;;1.60;1.30;;;;;;;13.82;44.89;100424.48;1772758;79;26637;-63
2021/03/06 09:26:18;;;;;;;1.87;1.55;;;;;;;13.92;44.78;100433.63;1771517;78;21186;-64
2021/03/06 09:28:47;;;;;;;1.65;1.50;;;;;;;14.00;44.74;100430.08;1794710;77;21160;-63
2021/03/06 09:31:28;;;;;;;1.60;1.40;;;;;;;14.10;44.60;100432.03;1728014;82;21157;-65
2021/03/06 09:33:55;;;;;;;1.55;1.35;;;;;;;14.22;44.61;100429.83;1747940;79;21662;-63
2021/03/06 09:36:24;;;;;;;2.33;1.62;;;;;;;14.32;44.63;100422.41;1775303;79;21159;-63
2021/03/06 09:38:56;;;;;;;3.25;1.40;;;;;;;14.42;44.53;100423.52;1791904;77;21373;-64
2021/03/06 09:41:33;;;;;;;2.37;1.42;;;;;;;14.55;44.38;100421.10;1712190;83;21203;-64
2021/03/06 09:44:03;;;;;;;1.90;1.57;;;;;;;14.67;44.26;100426.39;1745046;79;21659;-65
2021/03/06 09:46:33;;;;;;;2.35;1.50;;;;;;;14.79;44.19;100423.30;1782985;77;21182;-65
2021/03/06 09:49:14;;;;;;;1.72;1.57;;;;;;;14.90;44.58;100417.02;1705022;82;21225;-65
2021/03/06 09:51:52;;;;;;;1.35;1.12;;;;;;;15.05;44.77;100417.58;1758212;80;22213;-64
2021/03/06 09:54:21;;;;;;;2.02;1.60;;;;;;;15.18;44.83;100423.13;1780605;77;21126;-64
2021/03/06 09:56:56;;;;;;;1.90;1.80;;;;;;;15.32;44.78;100420.17;1779373;78;21107;-64
2021/03/06 09:59:25;;;;;;;1.70;1.40;;;;;;;15.46;44.66;100414.50;1789813;77;21126;-65
2021/03/06 10:01:52;;;;;;;1.47;1.30;;;;;;;15.60;44.50;100412.84;1789136;78;21163;-66
2021/03/06 10:04:22;;;;;;;1.35;1.25;;;;;;;15.73;44.39;100416.56;1796314;78;21303;-64
2021/03/06 10:06:53;;;;;;;1.98;1.20;;;;;;;15.88;44.25;100411.72;1770775;78;21524;-65
2021/03/06 10:09:23;;;;;;;1.90;1.47;;;;;;;16.01;44.22;100411.89;1775645;78;21178;-66
2021/03/06 10:11:55;;;;;;;1.90;1.30;;;;;;;16.17;44.20;100420.70;1780276;79;21075;-66
2021/03/06 10:14:25;;;;;;;1.90;1.57;;;;;;;16.32;44.12;100416.14;1764263;79;21154;-63
2021/03/06 10:16:56;;;;;;;1.70;1.60;;;;;;;16.47;43.98;100408.05;1791369;78;21194;-65
2021/03/06 10:19:26;;;;;;;1.45;1.35;;;;;;;16.63;43.84;100406.48;1796266;77;22078;-65
2021/03/06 10:22:06;;;;;;;2.10;1.60;;;;;;;16.75;43.60;100393.39;1790207;78;21153;-66
2021/03/06 10:24:56;;;;;;;1.35;1.25;;;;;;;16.89;43.65;100398.38;1798954;77;21117;-64
2021/03/06 10:27:39;;;;;;;1.67;1.37;;;;;;;17.02;43.58;100399.02;1796620;78;22054;-64
2021/03/06 10:30:20;;;;;;;1.65;1.45;;;;;;;17.17;43.48;100392.19;1806319;78;22248;-65
2021/03/06 10:32:52;;;;;;;1.30;1.10;;;;;;;17.32;43.41;100392.09;1816181;78;21630;-65
2021/03/06 10:35:42;;;;;;;1.20;1.10;;;;;;;17.46;43.21;100386.63;1790713;77;21062;-65
2021/03/06 10:38:13;;;;;;;1.85;1.47;;;;;;;17.57;42.91;100389.25;1793502;78;21126;-64
2021/03/06 10:41:01;;;;;;;2.75;1.47;;;;;;;17.65;42.35;100389.11;1786332;77;21841;-64
2021/03/06 10:43:33;;;;;;;1.40;1.20;;;;;;;17.69;42.04;100381.45;1814354;77;21137;-64
2021/03/06 10:46:11;;;;;;;1.77;1.57;;;;;;;17.70;42.08;100384.47;1791464;77;21190;-65
2021/03/06 10:48:39;;;;;;;1.60;1.50;;;;;;;17.72;42.08;100375.69;1804670;78;21133;-65
2021/03/06 10:51:08;;;;;;;1.50;1.20;;;;;;;17.75;42.61;100377.14;1811288;77;21114;-66
2021/03/06 10:53:37;;;;;;;1.60;1.30;;;;;;;17.78;42.35;100376.75;1799908;77;21090;-64
2021/03/06 10:56:19;;;;;;;2.02;1.40;;;;;;;17.79;42.28;100363.62;1802414;77;22409;-64
2021/03/06 10:58:47;;;;;;;1.85;1.40;;;;;;;17.82;42.11;100379.35;1792200;77;21122;-65
2021/03/06 11:01:17;;;;;;;1.45;1.20;;;;;;;17.79;42.00;100371.19;1801946;76;21161;-65
2021/03/06 11:03:46;;;;;;;1.80;1.47;;;;;;;17.77;41.96;100374.59;1796669;77;21149;-64
2021/03/06 11:06:14;;;;;;;1.25;1.15;;;;;;;17.75;42.01;100373.11;1801939;77;21189;-65
2021/03/06 11:08:43;;;;;;;1.27;1.12;;;;;;;17.85;42.01;100373.63;1811845;77;21228;-63
2021/03/06 11:11:10;;;;;;;1.55;1.30;;;;;;;17.99;42.11;100366.44;1794059;77;21157;-65
2021/03/06 11:13:44;;;;;;;1.40;1.30;;;;;;;18.07;42.09;100359.52;1800676;78;21134;-65
2021/03/06 11:16:12;;;;;;;1.37;1.25;;;;;;;18.21;41.66;100363.08;1813538;78;21153;-64
2021/03/06 11:18:42;;;;;;;1.82;1.40;;;;;;;18.38;41.44;100356.81;1801922;77;21146;-64
2021/03/06 11:21:13;;;;;;;1.67;1.40;;;;;;;18.61;41.19;100348.35;1775313;78;21462;-65
2021/03/06 11:23:41;;;;;;;2.40;1.20;;;;;;;18.87;40.70;100355.62;1771541;77;21130;-64
2021/03/06 11:26:08;;;;;;;1.12;1.02;;;;;;;19.05;40.42;100355.83;1770720;78;21178;-64
2021/03/06 11:28:36;;;;;;;1.50;1.40;;;;;;;19.21;39.86;100352.39;1773007;78;21635;-64
2021/03/06 11:31:04;;;;;;;1.72;1.40;;;;;;;19.35;39.73;100360.73;1759989;79;21579;-65
2021/03/06 11:33:32;;;;;;;1.85;1.50;;;;;;;19.39;39.57;100358.45;1774581;78;22221;-65
2021/03/06 11:36:00;;;;;;;1.40;1.30;;;;;;;19.39;39.38;100351.22;1786253;79;22059;-65
2021/03/06 11:38:27;;;;;;;2.62;1.42;;;;;;;19.34;39.40;100356.41;1777252;77;21083;-64
2021/03/06 11:40:56;;;;;;;8.83;1.50;;;;;;;19.26;39.39;100353.95;1774231;78;21198;-64
2021/03/06 11:43:23;;;;;;;2.12;1.10;;;;;;;19.13;39.51;100345.36;1792920;77;21139;-64
2021/03/06 11:45:51;;;;;;;1.98;1.30;;;;;;;19.00;39.64;100350.75;1772927;77;22123;-64
2021/03/06 11:48:19;;;;;;;2.02;1.10;;;;;;;18.85;39.84;100349.13;1789121;77;21132;-64